Latest Weather Observations for Edenhope

IDV60801

Issued at 5:02 pm EST Saturday 4 July 2015 (issued every 30 minutes, with the page automatically refreshed every 10 minutes)

About weather observations | Map of weather stations | Latest weather observations for VIC | Other Formats
Station Details ID: 079099 Name: EDENHOPE AIRPORT Lat: -37.02 Lon: 141.27 Height: 155.0 m
Data from the previous 72 hours. | See also: Recent months at Edenhope
Date/Time
EST
Temp
°C
App
Temp
°C
Dew
Point
Rel
Hum
%
Delta-T
°C
Wind Press
QNH
hPa
Press
MSL
hPa
Rain
since 9 am
mm
Dir
 
Spd
km/h
Gust
km/h
Spd
kts
Gust
kts
04/05:00pm 12.1 10.8 7.8 75 2.1 N 4 6 2 3 - - 0.0
04/04:30pm 12.1 10.4 7.4 73 2.3 NW 6 9 3 5 - - 0.0
04/04:00pm 12.2 10.3 7.7 74 2.2 NW 7 11 4 6 - - 0.0
04/03:30pm 12.1 10.4 7.4 73 2.3 NW 6 9 3 5 - - 0.0
04/03:00pm 11.7 9.7 7.2 74 2.2 WNW 7 11 4 6 - - 0.0
04/02:30pm 11.4 10.0 7.3 76 2.0 NW 4 6 2 3 - - 0.0
04/02:00pm 11.0 8.5 6.7 75 2.0 NW 9 13 5 7 - - 0.0
04/01:30pm 11.2 8.3 6.7 74 2.1 NNW 11 17 6 9 - - 0.0
04/01:00pm 10.6 7.3 6.4 75 2.0 NNW 13 19 7 10 - - 0.0
04/12:30pm 9.4 7.3 6.7 83 1.3 N 7 11 4 6 - - 0.0
04/12:00pm 9.0 6.5 6.4 84 1.2 NNW 9 15 5 8 - - 0.0
04/11:30am 9.1 6.0 5.5 78 1.6 NW 11 13 6 7 - - 0.0
04/11:00am 9.3 6.4 4.9 74 2.0 NW 9 15 5 8 - - 0.0
04/10:30am 9.5 6.6 4.5 71 2.2 NNW 9 15 5 8 - - 0.0
04/10:00am 8.7 5.4 4.5 75 1.9 NNW 11 15 6 8 - - 0.0
04/09:30am 8.2 5.6 4.2 76 1.8 NNW 7 9 4 5 - - 0.0
04/09:00am 7.9 5.3 4.1 77 1.7 N 7 9 4 5 - - 0.0
04/08:30am 7.7 5.0 3.7 76 1.7 NNW 7 11 4 6 - - 0.0
04/08:00am 7.6 4.5 3.8 77 1.6 NNW 9 13 5 7 - - 0.0
04/07:30am 7.6 5.1 3.6 76 1.7 NNW 6 9 3 5 - - 0.0
04/07:00am 7.5 4.9 3.4 75 1.8 NNW 6 7 3 4 - - 0.0
04/06:30am 7.4 4.9 3.5 76 1.7 NNW 6 9 3 5 - - 0.0
04/06:00am 6.7 3.5 3.1 78 1.5 NNW 9 13 5 7 - - 0.0
04/05:30am 6.6 3.4 2.9 77 1.6 NNW 9 11 5 6 - - 0.0
04/05:00am 6.5 3.8 2.9 78 1.5 N 6 9 3 5 - - 0.0
04/04:30am 7.0 4.8 3.3 77 1.6 N 4 6 2 3 - - 0.0
04/04:00am 7.3 4.4 2.8 73 1.9 NNW 7 9 4 5 - - 0.0
04/03:30am 7.2 4.5 2.7 73 1.9 NNW 6 9 3 5 - - 0.0
04/03:00am 7.2 4.5 2.7 73 1.9 N 6 7 3 4 - - 0.0
04/02:30am 7.1 4.4 2.6 73 1.9 N 6 9 3 5 - - 0.0
04/02:00am 7.3 4.6 2.4 71 2.0 N 6 7 3 4 - - 0.0
04/01:30am 7.3 4.4 2.4 71 2.0 N 7 11 4 6 - - 0.0
04/01:00am 7.3 4.4 2.4 71 2.0 N 7 11 4 6 - - 0.0
04/12:30am 7.0 4.1 2.5 73 1.9 N 7 9 4 5 - - 0.0
04/12:00am 6.8 4.0 2.1 72 1.9 N 6 9 3 5 - - 0.0
 
Date/Time
EST
Temp
°C
App
Temp
°C
Dew
Point
Rel
Hum
%
Delta-T
°C
Wind Press
QNH
hPa
Press
MSL
hPa
Rain
since 9 am
mm
Dir
 
Spd
km/h
Gust
km/h
Spd
kts
Gust
kts
03/11:30pm 7.2 4.2 2.1 70 2.1 N 7 9 4 5 - - 0.0
03/11:00pm 6.5 3.8 2.4 75 1.7 N 6 7 3 4 - - 0.0
03/10:30pm 6.3 3.9 2.2 75 1.7 NNW 4 6 2 3 - - 0.0
03/10:00pm 6.3 3.9 2.4 76 1.6 NNW 4 6 2 3 - - 0.0
03/09:30pm 6.5 4.1 2.0 73 1.8 N 4 4 2 2 - - 0.0
03/09:00pm 6.8 4.8 2.1 72 1.9 N 2 2 1 1 - - 0.0
03/08:30pm 7.1 4.7 2.2 71 2.0 NNE 4 6 2 3 - - 0.0
03/08:00pm 6.9 4.1 2.0 71 2.0 N 6 6 3 3 - - 0.0
03/07:30pm 7.2 4.8 1.9 69 2.2 NNW 4 4 2 2 - - 0.0
03/07:00pm 6.9 4.1 2.2 72 1.9 N 6 6 3 3 - - 0.0
03/06:30pm 7.4 5.0 2.3 70 2.1 N 4 6 2 3 - - 0.0
03/06:00pm 7.5 4.8 2.4 70 2.1 N 6 6 3 3 - - 0.0
03/05:30pm 7.6 4.9 2.5 70 2.1 N 6 6 3 3 - - 0.0
03/05:00pm 8.7 5.9 2.3 64 2.7 NNW 6 7 3 4 - - 0.0
03/04:30pm 9.3 6.3 1.9 60 3.1 NNW 7 9 4 5 - - 0.0
03/04:00pm 9.6 6.2 2.0 59 3.2 NW 9 13 5 7 - - 0.0
03/03:30pm 9.7 5.8 1.1 55 3.6 NW 11 17 6 9 - - 0.0
03/03:00pm 9.6 5.8 1.5 57 3.4 NNW 11 17 6 9 - - 0.0
03/02:30pm 9.8 6.0 1.5 56 3.5 NNW 11 15 6 8 - - 0.0
03/02:00pm 10.2 6.4 1.6 55 3.6 N 11 19 6 10 - - 0.0
03/01:30pm 9.9 6.5 2.0 58 3.4 NNW 9 13 5 7 - - 0.0
03/01:00pm 9.1 5.4 2.4 63 2.8 NW 11 15 6 8 - - 0.0
03/12:30pm 9.2 5.6 2.8 64 2.7 NNW 11 17 6 9 - - 0.0
03/12:00pm 8.5 4.8 2.5 66 2.5 NW 11 15 6 8 - - 0.0
03/11:30am 8.4 5.8 4.2 75 1.9 NW 7 17 4 9 - - 0.0
03/11:00am 6.9 4.2 3.7 80 1.4 NNW 7 9 4 5 - - 0.0
03/10:30am 6.0 3.5 3.5 84 1.1 NW 6 7 3 4 - - 0.0
03/10:00am 4.5 3.2 3.9 96 0.3 CALM 0 2 0 1 - - 0.0
03/09:30am 1.8 -0.7 1.4 97 0.2 WSW 4 6 2 3 - - 0.0
03/09:00am 1.3 -0.5 0.9 97 0.2 CALM 0 2 0 1 - - 0.0
03/08:30am -0.6 -2.7 -1.0 97 0.1 CALM 0 2 0 1 - - 0.0
03/08:00am -1.5 -4.9 -1.9 97 0.1 ENE 6 6 3 3 - - 0.0
03/07:30am -1.5 -4.5 -2.1 96 0.1 NE 4 6 2 3 - - 0.0
03/07:00am -1.4 -4.0 -1.8 97 0.1 NNE 2 4 1 2 - - 0.0
03/06:30am -1.6 -4.6 -2.2 96 0.1 NNE 4 4 2 2 - - 0.0
03/06:00am -1.4 -4.4 -1.8 97 0.1 NE 4 6 2 3 - - 0.0
03/05:30am -1.0 -4.3 -1.4 97 0.1 E 6 7 3 4 - - 0.0
03/05:00am -0.9 -3.1 -1.5 96 0.2 CALM 0 0 0 0 - - 0.0
03/04:30am -0.5 -2.6 -1.1 96 0.2 CALM 0 0 0 0 - - 0.0
03/04:00am -0.1 -2.2 -0.7 96 0.2 CALM 0 0 0 0 - - 0.0
03/03:30am -0.5 -3.0 -1.1 96 0.2 SSW 2 6 1 3 - - 0.0
03/03:00am 0.3 -1.7 -0.4 95 0.3 CALM 0 0 0 0 - - 0.0
03/02:30am 1.4 -0.5 0.8 96 0.2 CALM 0 0 0 0 - - 0.0
03/02:00am 0.8 -1.2 0.1 95 0.3 CALM 0 0 0 0 - - 0.0
03/01:30am 1.6 -0.2 0.9 95 0.3 CALM 0 0 0 0 - - 0.0
03/01:00am 1.5 -0.4 0.6 94 0.3 CALM 0 0 0 0 - - 0.0
03/12:30am 2.0 0.2 1.0 93 0.4 CALM 0 0 0 0 - - 0.0
03/12:00am 2.6 0.9 1.6 93 0.4 CALM 0 0 0 0 - - 0.0
 
Date/Time
EST
Temp
°C
App
Temp
°C
Dew
Point
Rel
Hum
%
Delta-T
°C
Wind Press
QNH
hPa
Press
MSL
hPa
Rain
since 9 am
mm
Dir
 
Spd
km/h
Gust
km/h
Spd
kts
Gust
kts
02/11:30pm 2.5 0.3 0.9 89 0.6 E 2 4 1 2 - - 0.0
02/11:00pm 4.1 1.6 1.8 85 0.9 SE 4 6 2 3 - - 0.0
02/10:30pm 4.8 1.9 2.5 85 0.9 SE 7 9 4 5 - - 0.0
02/10:00pm 4.7 2.8 3.0 89 0.7 S 2 6 1 3 - - 0.0
02/09:30pm 4.8 3.3 2.8 87 0.8 CALM 0 0 0 0 - - 0.0
02/09:00pm 4.7 3.1 2.6 86 0.9 CALM 0 0 0 0 - - 0.0
02/08:30pm 5.1 3.5 2.6 84 1.0 CALM 0 0 0 0 - - 0.0
02/08:00pm 5.6 3.5 1.7 76 1.6 S 2 4 1 2 - - 0.0
02/07:30pm 5.8 2.8 1.9 76 1.6 S 7 9 4 5 - - 0.0
02/07:00pm 6.3 4.2 2.0 74 1.8 SSW 2 4 1 2 - - 0.0
02/06:30pm 7.3 4.8 1.8 68 2.3 S 4 4 2 2 - - 0.0
02/06:00pm 7.2 4.7 1.5 67 2.3 S 4 6 2 3 - - 0.0
02/05:30pm 7.3 4.5 2.0 69 2.2 S 6 7 3 4 - - 0.0
02/05:00pm 8.3 6.3 2.5 67 2.5 S 2 6 1 3 - - 0.0
02/04:30pm 8.9 6.0 2.5 64 2.7 SW 7 9 4 5 - - 0.0
02/04:00pm 9.5 6.5 2.1 60 3.1 S 7 13 4 7 - - 0.0
02/03:30pm 11.2 7.8 1.7 52 4.1 S 9 15 5 8 - - 0.0
02/03:00pm 10.1 6.0 2.0 57 3.4 S 13 19 7 10 - - 0.0
02/02:30pm 10.7 5.4 2.8 58 3.4 S 20 30 11 16 - - 0.0
02/02:00pm 11.6 7.0 1.5 50 4.3 SSW 15 26 8 14 - - 0.0
02/01:30pm 9.9 5.2 3.2 63 2.9 S 17 32 9 17 - - 0.0
02/01:00pm 11.6 7.5 4.6 62 3.2 SSW 15 32 8 17 - - 0.0
02/12:30pm 10.1 5.3 4.5 68 2.5 SSW 19 24 10 13 - - 0.0
02/12:00pm 11.4 6.6 4.8 64 3.0 SSW 19 28 10 15 - - 0.0
02/11:30am 10.6 5.3 4.9 68 2.6 SSW 22 35 12 19 - - 0.0
02/11:00am 10.7 5.9 4.8 67 2.7 SSW 19 30 10 16 - - 0.0
02/10:30am 10.3 5.3 4.7 68 2.5 SSW 20 32 11 17 - - 0.0
02/10:00am 9.8 6.3 5.4 74 2.0 SW 13 20 7 11 - - 0.0
02/09:30am 9.3 5.8 5.5 77 1.7 SW 13 20 7 11 - - 0.0
02/09:00am 8.4 5.6 5.3 81 1.4 WSW 9 13 5 7 - - 1.4
02/08:30am 8.1 4.6 5.4 83 1.2 SW 13 24 7 13 - - 1.4
02/08:00am 7.5 4.7 5.1 85 1.1 WSW 9 13 5 7 - - 1.4
02/07:30am 7.7 4.9 5.2 84 1.1 WSW 9 13 5 7 - - 1.4
02/07:00am 8.3 5.2 5.6 83 1.2 WSW 11 15 6 8 - - 1.4
02/06:30am 8.3 5.3 5.8 84 1.1 WSW 11 15 6 8 - - 1.4
02/06:00am 9.1 5.9 6.7 85 1.1 SW 13 20 7 11 - - 1.4
02/05:30am 9.3 6.8 8.1 92 0.6 SW 11 17 6 9 - - 1.4
02/05:00am 9.2 6.7 8.3 94 0.4 SW 11 17 6 9 - - 1.4
02/04:30am 10.0 7.4 9.4 96 0.3 WSW 13 19 7 10 - - 1.4
02/04:00am 9.9 7.3 9.3 96 0.3 W 13 17 7 9 - - 1.4
02/03:30am 10.2 8.1 9.7 97 0.3 W 11 15 6 8 - - 1.4
02/03:00am 10.2 8.1 9.6 96 0.3 W 11 15 6 8 - - 1.4
02/02:30am 10.2 6.9 9.4 95 0.4 W 17 22 9 12 - - 1.2
02/02:00am 9.8 6.3 8.7 93 0.5 WNW 17 26 9 14 - - 0.6
02/01:30am 9.5 5.5 8.4 93 0.5 NW 19 32 10 17 - - 0.6
02/01:00am 9.7 5.6 8.0 89 0.8 NW 19 24 10 13 - - 0.4
02/12:30am 9.7 6.3 7.8 88 0.9 NW 15 24 8 13 - - 0.4
02/12:00am 9.7 6.3 7.8 88 0.9 NW 15 20 8 11 - - 0.4
 
Date/Time
EST
Temp
°C
App
Temp
°C
Dew
Point
Rel
Hum
%
Delta-T
°C
Wind Press
QNH
hPa
Press
MSL
hPa
Rain
since 9 am
mm
Dir
 
Spd
km/h
Gust
km/h
Spd
kts
Gust
kts
01/11:30pm 9.8 6.5 7.9 88 0.9 NW 15 22 8 12 - - 0.4
01/11:00pm 9.9 6.2 8.0 88 0.9 NW 17 32 9 17 - - 0.4
01/10:30pm 10.1 6.3 7.7 85 1.2 NW 17 24 9 13 - - 0.4
01/10:00pm 10.1 6.0 7.7 85 1.2 WNW 19 30 10 16 - - 0.4
01/09:30pm 9.8 6.4 7.7 87 1.0 WNW 15 24 8 13 - - 0.4
01/09:00pm 9.8 6.7 7.2 84 1.2 WNW 13 20 7 11 - - 0.4
01/08:30pm 10.0 6.5 7.1 82 1.4 WNW 15 20 8 11 - - 0.4
01/08:00pm 9.7 6.5 7.0 83 1.3 NW 13 19 7 10 - - 0.4
01/07:30pm 9.6 6.4 6.9 83 1.3 NW 13 19 7 10 - - 0.4
01/07:00pm 9.8 6.3 7.1 83 1.3 WNW 15 22 8 12 - - 0.4
01/06:30pm 10.3 7.3 7.9 85 1.2 NW 13 19 7 10 - - 0.4
01/06:00pm 10.2 7.3 8.3 88 0.9 NW 13 20 7 11 - - 0.4
01/05:30pm 9.9 6.8 8.7 92 0.6 NW 15 22 8 12 - - 0.4

Other Formats:

Comma delimited format used in spreadsheet applications
http://www.bom.gov.au/fwo/IDV60801/IDV60801.95832.axf

JavaScript Object Notation format (JSON) in row-major order
http://www.bom.gov.au/fwo/IDV60801/IDV60801.95832.json